createdAt,value
2018-10-11T00:00:21.474Z,14.85
2018-10-11T00:01:21.493Z,14.91
2018-10-11T00:02:21.513Z,14.99
2018-10-11T00:03:21.534Z,15.04
2018-10-11T00:04:21.554Z,15.03
2018-10-11T00:05:21.574Z,15.06
2018-10-11T00:06:21.594Z,15.04
2018-10-11T00:07:21.615Z,14.94
2018-10-11T00:08:21.636Z,14.88
2018-10-11T00:09:21.658Z,14.89
2018-10-11T00:10:21.675Z,14.84
2018-10-11T00:11:21.696Z,14.73
2018-10-11T00:12:21.717Z,14.69
2018-10-11T00:13:21.736Z,14.70
2018-10-11T00:14:21.756Z,14.60
2018-10-11T00:15:21.777Z,14.69
2018-10-11T00:16:21.798Z,14.60
2018-10-11T00:17:21.818Z,14.51
2018-10-11T00:18:21.838Z,14.50
2018-10-11T00:19:21.858Z,14.51
2018-10-11T00:20:21.879Z,14.54
2018-10-11T00:21:21.898Z,14.45
2018-10-11T00:22:21.919Z,14.36
2018-10-11T00:23:21.940Z,14.35
2018-10-11T00:24:21.959Z,14.41
2018-10-11T00:25:21.980Z,14.50
2018-10-11T00:26:22.000Z,14.51
2018-10-11T00:27:22.020Z,14.65
2018-10-11T00:28:22.041Z,14.63
2018-10-11T00:29:22.061Z,14.53
2018-10-11T00:30:22.080Z,14.62
2018-10-11T00:31:22.100Z,14.60
2018-10-11T00:32:22.121Z,14.72
2018-10-11T00:33:22.140Z,14.70
2018-10-11T00:34:22.161Z,14.72
2018-10-11T00:35:22.181Z,14.69
2018-10-11T00:36:22.205Z,14.59
2018-10-11T00:37:22.220Z,14.60
2018-10-11T00:38:22.256Z,14.51
2018-10-11T00:39:22.262Z,14.50
2018-10-11T00:40:22.282Z,14.40
2018-10-11T00:41:22.302Z,14.44
2018-10-11T00:42:22.321Z,14.43
2018-10-11T00:43:22.342Z,14.37
2018-10-11T00:44:22.363Z,14.32
2018-10-11T00:45:22.387Z,14.35
2018-10-11T00:46:22.402Z,14.36
2018-10-11T00:47:22.423Z,14.41
2018-10-11T00:48:22.443Z,14.33
2018-10-11T00:49:22.505Z,14.29
2018-10-11T00:50:22.484Z,14.37
2018-10-11T00:51:22.502Z,14.36
2018-10-11T00:52:22.523Z,14.32
2018-10-11T00:53:22.542Z,14.33
2018-10-11T00:54:22.562Z,14.30
2018-10-11T00:55:22.583Z,14.29
2018-10-11T00:56:22.603Z,14.32
2018-10-11T00:57:22.622Z,14.43
2018-10-11T00:58:22.642Z,14.43
2018-10-11T00:59:22.663Z,14.48
2018-10-11T01:00:22.683Z,14.53
2018-10-11T01:01:22.702Z,14.41
2018-10-11T01:02:22.728Z,14.43
2018-10-11T01:03:22.743Z,14.41
2018-10-11T01:04:22.763Z,14.32
2018-10-11T01:05:22.785Z,14.37
2018-10-11T01:06:22.802Z,14.45
2018-10-11T01:07:22.822Z,14.44
2018-10-11T01:08:22.843Z,14.41
2018-10-11T01:09:23.075Z,14.48
2018-10-11T01:10:22.922Z,14.40
2018-10-11T01:11:22.904Z,14.37
2018-10-11T01:12:22.923Z,14.44
2018-10-11T01:13:22.943Z,14.47
2018-10-11T01:14:22.962Z,14.32
2018-10-11T01:15:22.983Z,14.30
2018-10-11T01:16:23.006Z,14.33
2018-10-11T01:17:23.023Z,14.33
2018-10-11T01:18:23.042Z,14.28
2018-10-11T01:19:23.062Z,14.23
2018-10-11T01:20:23.082Z,14.28
2018-10-11T01:21:23.101Z,14.30
2018-10-11T01:22:23.122Z,14.40
2018-10-11T01:23:23.142Z,14.45
2018-10-11T01:24:23.163Z,14.37
2018-10-11T01:25:23.182Z,14.45
2018-10-11T01:26:23.202Z,14.50
2018-10-11T01:27:23.274Z,14.45
2018-10-11T01:28:23.243Z,14.50
2018-10-11T01:29:23.261Z,14.48
2018-10-11T01:30:23.282Z,14.37
2018-10-11T01:31:23.303Z,14.36
2018-10-11T01:32:23.322Z,14.29
2018-10-11T01:33:23.341Z,14.18
2018-10-11T01:34:23.361Z,14.14
2018-10-11T01:35:23.381Z,14.20
2018-10-11T01:36:23.404Z,14.26
2018-10-11T01:37:23.421Z,14.25
2018-10-11T01:38:23.493Z,14.29
2018-10-11T01:39:23.461Z,14.23
2018-10-11T01:40:23.483Z,14.26
2018-10-11T01:41:23.501Z,14.11
2018-10-11T01:42:23.520Z,14.17
2018-10-11T01:43:23.540Z,14.11
2018-10-11T01:44:23.561Z,14.08
2018-10-11T01:45:23.583Z,13.99
2018-10-11T01:46:23.601Z,13.95
2018-10-11T01:47:23.620Z,13.95
2018-10-11T01:48:23.640Z,13.90
2018-10-11T01:49:23.660Z,13.92
2018-10-11T01:50:23.680Z,13.87
2018-10-11T01:51:23.700Z,13.90
2018-10-11T01:52:23.720Z,13.85
2018-10-11T01:53:23.739Z,13.79
2018-10-11T01:54:23.759Z,13.87
2018-10-11T01:55:23.779Z,13.87
2018-10-11T01:56:23.799Z,13.77
2018-10-11T01:57:23.819Z,13.86
2018-10-11T01:58:23.837Z,13.72
2018-10-11T01:59:23.858Z,13.78
2018-10-11T02:00:23.877Z,13.89
2018-10-11T02:01:23.910Z,13.87
2018-10-11T02:02:23.917Z,14.04
2018-10-11T02:03:23.936Z,14.04
2018-10-11T02:04:23.956Z,13.93
2018-10-11T02:05:23.975Z,13.93
2018-10-11T02:06:23.995Z,13.86
2018-10-11T02:07:24.015Z,13.90
2018-10-11T02:08:24.035Z,13.93
2018-10-11T02:09:24.058Z,13.92
2018-10-11T02:10:24.074Z,13.90
2018-10-11T02:11:24.092Z,13.87
2018-10-11T02:12:24.164Z,13.86
2018-10-11T02:13:24.132Z,13.85
2018-10-11T02:14:24.153Z,13.86
2018-10-11T02:15:24.173Z,13.87
2018-10-11T02:16:24.193Z,13.77
2018-10-11T02:17:24.212Z,13.85
2018-10-11T02:18:24.232Z,13.77
2018-10-11T02:19:24.252Z,13.90
2018-10-11T02:20:24.272Z,13.78
2018-10-11T02:21:24.290Z,13.77
2018-10-11T02:22:24.364Z,13.77
2018-10-11T02:23:24.330Z,13.79
2018-10-11T02:24:24.350Z,13.77
2018-10-11T02:25:24.373Z,13.74
2018-10-11T02:26:24.389Z,13.77
2018-10-11T02:27:24.409Z,13.85
2018-10-11T02:28:24.429Z,13.78
2018-10-11T02:29:24.453Z,13.87
2018-10-11T02:30:24.474Z,13.78
2018-10-11T02:31:24.488Z,13.72
2018-10-11T02:32:24.508Z,13.63
2018-10-11T02:33:24.527Z,13.70
2018-10-11T02:34:24.547Z,13.65
2018-10-11T02:35:24.566Z,13.75
2018-10-11T02:36:24.588Z,13.65
2018-10-11T02:37:24.605Z,13.68
2018-10-11T02:38:24.626Z,13.65
2018-10-11T02:39:24.645Z,13.62
2018-10-11T02:40:24.665Z,13.60
2018-10-11T02:41:24.684Z,13.56
2018-10-11T02:42:24.704Z,13.54
2018-10-11T02:43:24.774Z,13.60
2018-10-11T02:44:24.744Z,13.62
2018-10-11T02:45:24.763Z,13.63
2018-10-11T02:46:24.786Z,13.54
2018-10-11T02:47:24.802Z,13.54
2018-10-11T02:48:24.825Z,13.59
2018-10-11T02:49:24.842Z,13.57
2018-10-11T02:50:24.863Z,13.53
2018-10-11T02:51:24.881Z,13.56
2018-10-11T02:52:24.900Z,13.46
2018-10-11T02:53:24.921Z,13.46
2018-10-11T02:54:24.944Z,13.46
2018-10-11T02:55:24.960Z,13.38
2018-10-11T02:56:24.979Z,13.37
2018-10-11T02:57:24.998Z,13.38
2018-10-11T02:58:25.019Z,13.39
2018-10-11T02:59:25.039Z,13.47
2018-10-11T03:00:25.058Z,13.39
2018-10-11T03:01:25.077Z,13.37
2018-10-11T03:02:25.098Z,13.28
2018-10-11T03:03:25.119Z,13.35
2018-10-11T03:04:25.186Z,13.37
2018-10-11T03:05:25.155Z,13.35
2018-10-11T03:06:25.174Z,13.33
2018-10-11T03:07:25.194Z,13.35
2018-10-11T03:08:25.214Z,13.33
2018-10-11T03:09:25.245Z,13.23
2018-10-11T03:10:25.254Z,13.25
2018-10-11T03:11:25.272Z,13.39
2018-10-11T03:12:25.293Z,13.44
2018-10-11T03:13:25.314Z,13.46
2018-10-11T03:14:25.331Z,13.56
2018-10-11T03:15:25.351Z,13.60
2018-10-11T03:16:25.371Z,13.67
2018-10-11T03:17:25.390Z,13.67
2018-10-11T03:18:25.409Z,13.59
2018-10-11T03:19:25.429Z,13.52
2018-10-11T03:20:25.452Z,13.47
2018-10-11T03:21:25.468Z,13.53
2018-10-11T03:22:25.487Z,13.50
2018-10-11T03:23:25.507Z,13.42
2018-10-11T03:24:25.528Z,13.37
2018-10-11T03:25:25.545Z,13.35
2018-10-11T03:26:25.567Z,13.41
2018-10-11T03:27:25.583Z,13.31
2018-10-11T03:28:25.604Z,13.37
2018-10-11T03:29:25.623Z,13.46
2018-10-11T03:30:25.705Z,13.39
2018-10-11T03:31:25.663Z,13.37
2018-10-11T03:32:25.683Z,13.38
2018-10-11T03:33:25.751Z,13.31
2018-10-11T03:34:25.721Z,13.39
2018-10-11T03:35:25.741Z,13.37
2018-10-11T03:36:25.760Z,13.31
2018-10-11T03:37:25.778Z,13.23
2018-10-11T03:38:25.798Z,13.27
2018-10-11T03:39:25.818Z,13.31
2018-10-11T03:40:25.838Z,13.27
2018-10-11T03:41:25.857Z,13.18
2018-10-11T03:42:25.877Z,13.12
2018-10-11T03:43:25.948Z,13.16
2018-10-11T03:44:25.916Z,13.12
2018-10-11T03:45:25.934Z,13.11
2018-10-11T03:46:25.983Z,13.19
2018-10-11T03:47:25.974Z,13.12
2018-10-11T03:48:25.993Z,13.13
2018-10-11T03:49:26.011Z,13.16
2018-10-11T03:50:26.032Z,13.18
2018-10-11T03:51:26.052Z,13.18
2018-10-11T03:52:26.071Z,13.23
2018-10-11T03:53:26.089Z,13.22
2018-10-11T03:54:26.108Z,13.19
2018-10-11T03:55:26.130Z,13.13
2018-10-11T03:56:26.148Z,13.11
2018-10-11T03:57:26.219Z,13.08
2018-10-11T03:58:26.187Z,13.08
2018-10-11T03:59:26.207Z,13.08
2018-10-11T04:00:26.229Z,13.00
2018-10-11T04:01:26.245Z,12.98
2018-10-11T04:02:26.264Z,12.98
2018-10-11T04:03:26.286Z,13.05
2018-10-11T04:04:26.304Z,13.11
2018-10-11T04:05:26.322Z,13.05
2018-10-11T04:06:26.341Z,13.03
2018-10-11T04:07:26.387Z,13.05
2018-10-11T04:08:26.381Z,13.03
2018-10-11T04:09:26.400Z,12.95
2018-10-11T04:10:26.419Z,13.01
2018-10-11T04:11:26.437Z,12.97
2018-10-11T04:12:26.458Z,12.97
2018-10-11T04:13:26.477Z,12.98
2018-10-11T04:14:26.496Z,13.01
2018-10-11T04:15:26.552Z,12.95
2018-10-11T04:16:26.535Z,12.95
2018-10-11T04:17:26.554Z,12.97
2018-10-11T04:18:26.574Z,12.95
2018-10-11T04:19:26.593Z,12.94
2018-10-11T04:20:26.615Z,12.93
2018-10-11T04:21:26.631Z,12.94
2018-10-11T04:22:26.652Z,12.95
2018-10-11T04:23:26.671Z,12.94
2018-10-11T04:24:26.690Z,12.95
2018-10-11T04:25:26.708Z,12.98
2018-10-11T04:26:26.728Z,13.05
2018-10-11T04:27:26.748Z,13.00
2018-10-11T04:28:26.772Z,13.00
2018-10-11T04:29:26.785Z,13.09
2018-10-11T04:30:26.805Z,13.03
2018-10-11T04:31:26.824Z,13.00
2018-10-11T04:32:26.844Z,13.03
2018-10-11T04:33:26.865Z,13.09
2018-10-11T04:34:26.882Z,13.08
2018-10-11T04:35:26.902Z,12.90
2018-10-11T04:36:26.922Z,12.98
2018-10-11T04:37:26.990Z,13.08
2018-10-11T04:38:26.959Z,13.08
2018-10-11T04:39:26.979Z,12.97
2018-10-11T04:40:26.999Z,13.01
2018-10-11T04:41:27.017Z,12.97
2018-10-11T04:42:27.038Z,12.95
2018-10-11T04:43:27.056Z,12.90
2018-10-11T04:44:27.126Z,12.85
2018-10-11T04:45:27.094Z,12.93
2018-10-11T04:46:27.113Z,12.90
2018-10-11T04:47:27.140Z,12.87
2018-10-11T04:48:27.152Z,12.87
2018-10-11T04:49:27.174Z,12.86
2018-10-11T04:50:27.192Z,12.94
2018-10-11T04:51:27.209Z,12.87
2018-10-11T04:52:27.229Z,12.79
2018-10-11T04:53:27.265Z,12.76
2018-10-11T04:54:27.268Z,12.73
2018-10-11T04:55:27.287Z,12.79
2018-10-11T04:56:27.307Z,12.86
2018-10-11T04:57:27.326Z,12.93
2018-10-11T04:58:27.345Z,12.90
2018-10-11T04:59:27.364Z,12.86
2018-10-11T05:00:27.388Z,12.87
2018-10-11T05:01:27.405Z,12.86
2018-10-11T05:02:27.422Z,12.85
2018-10-11T05:03:27.441Z,12.90
2018-10-11T05:04:27.460Z,12.83
2018-10-11T05:05:27.534Z,12.97
2018-10-11T05:06:27.500Z,12.86
2018-10-11T05:07:27.521Z,12.87
2018-10-11T05:08:27.537Z,12.93
2018-10-11T05:09:27.556Z,12.93
2018-10-11T05:10:27.576Z,12.94
2018-10-11T05:11:27.595Z,12.94
2018-10-11T05:12:27.615Z,12.97
2018-10-11T05:13:27.633Z,13.00
2018-10-11T05:14:27.655Z,12.93
2018-10-11T05:15:27.672Z,12.90
2018-10-11T05:16:27.692Z,12.94
2018-10-11T05:17:27.761Z,12.93
2018-10-11T05:18:27.729Z,12.97
2018-10-11T05:19:27.749Z,12.93
2018-10-11T05:20:27.768Z,12.98
2018-10-11T05:21:27.804Z,12.90
2018-10-11T05:22:27.807Z,12.94
2018-10-11T05:23:27.837Z,12.90
2018-10-11T05:24:27.845Z,12.87
2018-10-11T05:25:27.866Z,12.95
2018-10-11T05:26:27.888Z,12.94
2018-10-11T05:27:27.903Z,13.08
2018-10-11T05:28:27.922Z,12.93
2018-10-11T05:29:27.952Z,13.00
2018-10-11T05:30:27.960Z,12.91
2018-10-11T05:31:27.980Z,13.00
2018-10-11T05:32:28.002Z,12.98
2018-10-11T05:33:28.017Z,12.98
2018-10-11T05:34:28.037Z,12.97
2018-10-11T05:35:28.056Z,12.98
2018-10-11T05:36:28.077Z,12.98
2018-10-11T05:37:28.099Z,13.04
2018-10-11T05:38:28.114Z,13.15
2018-10-11T05:39:28.184Z,13.01
2018-10-11T05:40:28.153Z,13.11
2018-10-11T05:41:28.172Z,13.00
2018-10-11T05:42:28.191Z,12.98
2018-10-11T05:43:28.211Z,13.08
2018-10-11T05:44:28.315Z,13.08
2018-10-11T05:45:28.248Z,13.11
2018-10-11T05:46:28.267Z,12.93
2018-10-11T05:47:28.287Z,13.00
2018-10-11T05:48:28.306Z,13.08
2018-10-11T05:49:28.325Z,13.09
2018-10-11T05:50:28.345Z,12.93
2018-10-11T05:51:28.364Z,13.08
2018-10-11T05:52:28.384Z,13.12
2018-10-11T05:53:28.401Z,13.01
2018-10-11T05:54:28.421Z,13.11
2018-10-11T05:55:28.441Z,13.04
2018-10-11T05:56:28.466Z,13.11
2018-10-11T05:57:28.481Z,13.05
2018-10-11T05:58:28.498Z,13.15
2018-10-11T05:59:28.517Z,12.93
2018-10-11T06:00:28.537Z,12.95
2018-10-11T06:01:28.555Z,12.97
2018-10-11T06:02:28.575Z,12.97
2018-10-11T06:03:28.597Z,12.94
2018-10-11T06:04:28.666Z,12.95
2018-10-11T06:05:28.634Z,12.97
2018-10-11T06:06:28.652Z,12.94
2018-10-11T06:07:28.672Z,12.98
2018-10-11T06:08:28.691Z,12.95
2018-10-11T06:09:28.710Z,13.04
2018-10-11T06:10:28.732Z,13.11
2018-10-11T06:11:28.749Z,13.08
2018-10-11T06:12:28.769Z,12.98
2018-10-11T06:13:28.787Z,13.03
2018-10-11T06:14:28.806Z,13.08
2018-10-11T06:15:28.827Z,13.15
2018-10-11T06:16:28.845Z,13.08
2018-10-11T06:17:28.864Z,13.13
2018-10-11T06:18:28.883Z,13.13
2018-10-11T06:19:28.903Z,13.11
2018-10-11T06:20:28.923Z,13.01
2018-10-11T06:21:28.944Z,13.09
2018-10-11T06:22:28.960Z,13.09
2018-10-11T06:23:28.979Z,13.09
2018-10-11T06:24:29.001Z,13.00
2018-10-11T06:25:29.018Z,13.09
2018-10-11T06:26:29.037Z,13.03
2018-10-11T06:27:29.057Z,13.11
2018-10-11T06:28:29.076Z,13.03
2018-10-11T06:29:29.095Z,13.05
2018-10-11T06:30:29.115Z,13.03
2018-10-11T06:31:29.137Z,13.13
2018-10-11T06:32:29.155Z,13.20
2018-10-11T06:33:29.174Z,13.16
2018-10-11T06:34:29.195Z,13.23
2018-10-11T06:35:29.212Z,13.12
2018-10-11T06:36:29.370Z,13.20
2018-10-11T06:37:29.299Z,13.22
2018-10-11T06:38:29.269Z,13.28
2018-10-11T06:39:29.289Z,13.27
2018-10-11T06:40:29.309Z,13.22
2018-10-11T06:41:29.327Z,13.28
2018-10-11T06:42:29.514Z,13.31
2018-10-11T06:43:29.367Z,13.22
2018-10-11T06:44:29.436Z,13.27
2018-10-11T06:45:29.405Z,13.35
2018-10-11T06:46:29.425Z,13.35
2018-10-11T06:47:29.445Z,13.41
2018-10-11T06:48:29.464Z,13.37
2018-10-11T06:49:29.482Z,13.42
2018-10-11T06:50:29.601Z,13.44
2018-10-11T06:51:29.525Z,13.39
2018-10-11T06:52:29.592Z,13.46
2018-10-11T06:53:29.560Z,13.50
2018-10-11T06:54:29.580Z,13.52
2018-10-11T06:55:29.599Z,13.60
2018-10-11T06:56:29.619Z,13.59
2018-10-11T06:57:29.687Z,13.63
2018-10-11T06:58:29.657Z,13.63
2018-10-11T06:59:29.677Z,13.77
2018-10-11T07:00:29.699Z,13.85
2018-10-11T07:01:29.716Z,13.85
2018-10-11T07:02:29.736Z,13.87
2018-10-11T07:03:29.755Z,13.89
2018-10-11T07:04:29.775Z,13.90
2018-10-11T07:05:29.794Z,13.87
2018-10-11T07:06:29.813Z,13.86
2018-10-11T07:07:29.838Z,13.95
2018-10-11T07:08:29.854Z,13.97
2018-10-11T07:09:29.872Z,14.00
2018-10-11T07:10:29.941Z,13.99
2018-10-11T07:11:29.912Z,14.05
2018-10-11T07:12:29.937Z,14.04
2018-10-11T07:13:29.956Z,14.11
2018-10-11T07:14:30.005Z,14.15
2018-10-11T07:15:29.990Z,14.15
2018-10-11T07:16:30.011Z,14.14
2018-10-11T07:17:30.029Z,14.04
2018-10-11T07:18:30.098Z,14.20
2018-10-11T07:19:30.152Z,14.22
2018-10-11T07:20:30.093Z,14.22
2018-10-11T07:21:30.110Z,14.14
2018-10-11T07:22:30.129Z,14.15
2018-10-11T07:23:30.151Z,14.26
2018-10-11T07:24:30.167Z,14.36
2018-10-11T07:25:30.187Z,14.37
2018-10-11T07:26:30.257Z,14.35
2018-10-11T07:27:30.229Z,14.33
2018-10-11T07:28:30.246Z,14.48
2018-10-11T07:29:30.266Z,14.41
2018-10-11T07:30:30.285Z,14.44
2018-10-11T07:31:30.306Z,14.43
2018-10-11T07:32:30.380Z,14.51
2018-10-11T07:33:30.345Z,14.50
2018-10-11T07:34:30.382Z,14.51
2018-10-11T07:35:30.544Z,14.69
2018-10-11T07:36:30.406Z,14.77
2018-10-11T07:37:30.425Z,14.89
2018-10-11T07:38:30.445Z,14.88
2018-10-11T07:39:30.465Z,15.04
2018-10-11T07:40:30.572Z,15.11
2018-10-11T07:41:30.556Z,15.15
2018-10-11T07:42:30.526Z,15.09
2018-10-11T07:43:30.546Z,15.03
2018-10-11T07:44:30.566Z,15.02
2018-10-11T07:45:30.588Z,15.02
2018-10-11T07:46:30.606Z,15.03
2018-10-11T07:47:30.628Z,15.02
2018-10-11T07:48:30.649Z,15.04
2018-10-11T07:49:30.667Z,15.14
2018-10-11T07:50:30.688Z,15.14
2018-10-11T07:51:30.708Z,15.17
2018-10-11T07:52:31.034Z,15.18
2018-10-11T07:53:30.752Z,15.35
2018-10-11T07:54:30.769Z,15.27
2018-10-11T07:55:30.790Z,15.31
2018-10-11T07:56:30.810Z,15.39
2018-10-11T07:57:30.830Z,15.33
2018-10-11T07:58:30.851Z,15.43
2018-10-11T07:59:30.873Z,15.47
2018-10-11T08:00:30.892Z,15.55
2018-10-11T08:01:31.014Z,15.49
2018-10-11T08:02:30.937Z,15.54
2018-10-11T08:03:32.166Z,15.61
2018-10-11T08:04:30.974Z,15.76
2018-10-11T08:05:30.994Z,15.65
2018-10-11T08:06:31.014Z,15.79
2018-10-11T08:07:31.141Z,15.68
2018-10-11T08:08:31.130Z,15.75
2018-10-11T08:09:31.100Z,15.91
2018-10-11T08:10:31.232Z,15.88
2018-10-11T08:11:31.209Z,15.94
2018-10-11T08:12:31.141Z,15.97
2018-10-11T08:13:31.252Z,16.01
2018-10-11T08:14:31.179Z,16.15
2018-10-11T08:15:31.201Z,16.09
2018-10-11T08:16:31.298Z,16.15
2018-10-11T08:17:31.699Z,16.23
2018-10-11T08:18:31.263Z,16.29
2018-10-11T08:19:31.523Z,16.24
2018-10-11T08:20:31.370Z,16.38
2018-10-11T08:21:31.369Z,16.32
2018-10-11T08:22:31.355Z,16.39
2018-10-11T08:23:31.367Z,16.36
2018-10-11T08:24:31.654Z,16.42
2018-10-11T08:25:31.813Z,16.46
2018-10-11T08:26:31.641Z,16.53
2018-10-11T08:27:31.453Z,16.50
2018-10-11T08:28:31.471Z,16.58
2018-10-11T08:29:31.491Z,16.66
2018-10-11T08:30:31.513Z,16.65
2018-10-11T08:31:31.561Z,16.76
2018-10-11T08:32:31.636Z,16.87
2018-10-11T08:33:31.575Z,16.93
2018-10-11T08:34:31.599Z,17.01
2018-10-11T08:35:31.619Z,17.01
2018-10-11T08:36:31.643Z,17.12
2018-10-11T08:37:31.747Z,17.14
2018-10-11T08:38:31.744Z,17.23
2018-10-11T08:39:31.704Z,17.23
2018-10-11T08:40:31.725Z,17.38
2018-10-11T08:41:31.747Z,17.46
2018-10-11T08:42:31.766Z,17.51
2018-10-11T08:43:31.869Z,17.59
2018-10-11T08:44:31.812Z,17.56
2018-10-11T08:45:31.830Z,17.65
2018-10-11T08:46:31.852Z,17.59
2018-10-11T08:47:31.873Z,17.63
2018-10-11T08:48:31.895Z,17.74
2018-10-11T08:49:31.915Z,17.74
2018-10-11T08:50:32.007Z,17.72
2018-10-11T08:51:31.959Z,17.67
2018-10-11T08:52:31.981Z,17.71
2018-10-11T08:53:32.020Z,17.70
2018-10-11T08:54:32.023Z,17.74
2018-10-11T08:55:32.091Z,17.76
2018-10-11T08:56:32.067Z,17.87
2018-10-11T08:57:32.338Z,17.97
2018-10-11T08:58:32.110Z,18.10
2018-10-11T08:59:32.242Z,18.22
2018-10-11T09:00:32.153Z,18.28
2018-10-11T09:01:32.176Z,18.29
2018-10-11T09:02:32.204Z,18.40
2018-10-11T09:03:32.354Z,18.40
2018-10-11T09:04:32.461Z,18.40
2018-10-11T09:05:32.262Z,18.43
2018-10-11T09:06:32.284Z,18.45
2018-10-11T09:07:32.309Z,18.53
2018-10-11T09:08:32.329Z,18.53
2018-10-11T09:09:32.411Z,18.65
2018-10-11T09:10:38.291Z,18.66
2018-10-11T09:11:32.547Z,18.74
2018-10-11T09:12:32.416Z,18.80
2018-10-11T09:13:32.438Z,18.81
2018-10-11T09:14:32.462Z,18.77
2018-10-11T09:15:32.485Z,18.84
2018-10-11T09:16:32.506Z,18.95
2018-10-11T09:17:32.676Z,19.00
2018-10-11T09:18:32.600Z,19.09
2018-10-11T09:19:32.572Z,19.18
2018-10-11T09:20:32.594Z,19.21
2018-10-11T09:21:32.616Z,19.30
2018-10-11T09:22:32.643Z,19.36
2018-10-11T09:23:32.662Z,19.36
2018-10-11T09:24:32.684Z,19.34
2018-10-11T09:25:32.706Z,19.39
2018-10-11T09:26:32.728Z,19.37
2018-10-11T09:27:32.752Z,19.34
2018-10-11T09:28:32.775Z,19.36
2018-10-11T09:29:32.801Z,19.36
2018-10-11T09:30:32.870Z,19.37
2018-10-11T09:31:32.842Z,19.51
2018-10-11T09:32:32.865Z,19.63
2018-10-11T09:33:33.132Z,19.64
2018-10-11T09:34:32.912Z,19.56
2018-10-11T09:35:32.934Z,19.64
2018-10-11T09:36:33.010Z,19.56
2018-10-11T09:37:32.978Z,19.71
2018-10-11T09:38:33.002Z,19.62
2018-10-11T09:39:33.075Z,19.64
2018-10-11T09:40:33.048Z,19.58
2018-10-11T09:41:33.069Z,19.71
2018-10-11T09:42:33.093Z,19.76
2018-10-11T09:43:33.117Z,19.88
2018-10-11T09:44:33.139Z,20.04
2018-10-11T09:45:33.162Z,20.10
2018-10-11T09:46:33.185Z,20.24
2018-10-11T09:47:33.209Z,20.24
2018-10-11T09:48:33.245Z,20.31
2018-10-11T09:49:33.254Z,20.34
2018-10-11T09:50:33.277Z,20.36
2018-10-11T09:51:33.301Z,20.43
2018-10-11T09:52:33.324Z,20.40
2018-10-11T09:53:33.350Z,20.39
2018-10-11T09:54:33.533Z,20.40
2018-10-11T09:55:33.397Z,20.39
2018-10-11T09:56:33.418Z,20.43
2018-10-11T09:57:33.441Z,20.50
2018-10-11T09:58:33.464Z,20.50
2018-10-11T09:59:33.487Z,20.52
2018-10-11T10:00:33.511Z,20.50
2018-10-11T10:01:33.533Z,20.52
2018-10-11T10:02:33.557Z,20.63
2018-10-11T10:03:33.581Z,20.59
2018-10-11T10:04:33.604Z,20.62
2018-10-11T10:05:33.627Z,20.69
2018-10-11T10:06:33.651Z,20.77
2018-10-11T10:07:33.675Z,20.80
2018-10-11T10:08:33.701Z,20.87
2018-10-11T10:09:33.720Z,20.90
2018-10-11T10:10:33.744Z,20.80
2018-10-11T10:11:33.768Z,20.84
2018-10-11T10:12:33.793Z,20.93
2018-10-11T10:13:33.815Z,20.99
2018-10-11T10:14:33.840Z,20.95
2018-10-11T10:15:33.899Z,20.93
2018-10-11T10:16:33.887Z,20.92
2018-10-11T10:17:33.910Z,20.92
2018-10-11T10:18:33.934Z,21.05
2018-10-11T10:19:33.961Z,21.09
2018-10-11T10:20:33.982Z,21.14
2018-10-11T10:21:34.072Z,21.09
2018-10-11T10:22:34.051Z,21.11
2018-10-11T10:23:34.053Z,21.11
2018-10-11T10:24:34.077Z,21.11
2018-10-11T10:25:34.152Z,21.21
2018-10-11T10:26:34.175Z,21.14
2018-10-11T10:27:34.230Z,21.09
2018-10-11T10:28:34.475Z,21.12
2018-10-11T10:29:34.196Z,21.18
2018-10-11T10:30:34.221Z,21.27
2018-10-11T10:31:34.248Z,21.24
2018-10-11T10:32:34.268Z,21.29
2018-10-11T10:33:34.292Z,21.35
2018-10-11T10:34:34.316Z,21.36
2018-10-11T10:35:34.591Z,21.40
2018-10-11T10:36:34.365Z,21.40
2018-10-11T10:37:34.538Z,21.45
2018-10-11T10:38:34.418Z,21.55
2018-10-11T10:39:34.436Z,21.55
2018-10-11T10:40:34.461Z,21.45
2018-10-11T10:41:34.487Z,21.48
2018-10-11T10:42:34.909Z,21.48
2018-10-11T10:43:34.533Z,21.57
2018-10-11T10:44:34.557Z,21.57
2018-10-11T10:45:34.591Z,21.55
2018-10-11T10:46:34.606Z,21.60
2018-10-11T10:47:35.036Z,21.72
2018-10-11T10:48:34.656Z,21.66
2018-10-11T10:49:35.079Z,21.69
2018-10-11T10:50:34.703Z,21.75
2018-10-11T10:51:34.727Z,21.85
2018-10-11T10:52:34.751Z,21.83
2018-10-11T10:53:34.775Z,21.89
2018-10-11T10:54:34.800Z,21.91
2018-10-11T10:55:34.825Z,22.02
2018-10-11T10:56:34.851Z,21.93
2018-10-11T10:57:34.873Z,21.85
2018-10-11T10:58:34.898Z,21.91
2018-10-11T10:59:35.277Z,21.89
2018-10-11T11:00:34.947Z,21.83
2018-10-11T11:01:35.020Z,21.88
2018-10-11T11:02:34.995Z,21.89
2018-10-11T11:03:35.020Z,21.83
2018-10-11T11:04:35.146Z,21.85
2018-10-11T11:05:35.069Z,21.79
2018-10-11T11:06:35.093Z,21.92
2018-10-11T11:07:35.117Z,21.91
2018-10-11T11:08:35.144Z,21.95
2018-10-11T11:09:35.166Z,22.04
2018-10-11T11:10:35.191Z,22.10
2018-10-11T11:11:35.216Z,22.08
2018-10-11T11:12:35.248Z,22.11
2018-10-11T11:13:35.268Z,22.02
2018-10-11T11:14:35.326Z,22.06
2018-10-11T11:15:35.314Z,22.13
2018-10-11T11:16:35.338Z,22.10
2018-10-11T11:17:35.364Z,22.10
2018-10-11T11:18:35.387Z,21.99
2018-10-11T11:19:35.412Z,22.04
2018-10-11T11:20:35.437Z,22.06
2018-10-11T11:21:35.461Z,22.15
2018-10-11T11:22:35.489Z,22.07
2018-10-11T11:23:35.513Z,22.17
2018-10-11T11:24:35.535Z,22.11
2018-10-11T11:25:35.609Z,22.17
2018-10-11T11:26:35.583Z,22.17
2018-10-11T11:27:35.608Z,22.28
2018-10-11T11:28:35.633Z,22.26
2018-10-11T11:29:35.659Z,22.44
2018-10-11T11:30:35.682Z,22.39
2018-10-11T11:31:35.707Z,22.44
2018-10-11T11:32:35.735Z,22.41
2018-10-11T11:33:35.755Z,22.43
2018-10-11T11:34:35.781Z,22.44
2018-10-11T11:35:35.806Z,22.44
2018-10-11T11:36:35.830Z,22.45
2018-10-11T11:37:35.858Z,22.54
2018-10-11T11:38:35.879Z,22.41
2018-10-11T11:39:35.904Z,22.51
2018-10-11T11:40:35.930Z,22.47
2018-10-11T11:41:35.952Z,22.48
2018-10-11T11:42:35.981Z,22.57
2018-10-11T11:43:36.003Z,22.62
2018-10-11T11:44:36.028Z,22.68
2018-10-11T11:45:36.056Z,22.63
2018-10-11T11:46:36.077Z,22.60
2018-10-11T11:47:36.102Z,22.60
2018-10-11T11:48:36.127Z,22.57
2018-10-11T11:49:36.151Z,22.62
2018-10-11T11:50:36.240Z,22.69
2018-10-11T11:51:36.201Z,22.60
2018-10-11T11:52:36.227Z,22.54
2018-10-11T11:53:36.251Z,22.53
2018-10-11T11:54:36.275Z,22.66
2018-10-11T11:55:36.300Z,22.70
2018-10-11T11:56:36.326Z,22.70
2018-10-11T11:57:36.350Z,22.68
2018-10-11T11:58:36.375Z,22.63
2018-10-11T11:59:36.401Z,22.68
2018-10-11T12:00:36.425Z,22.76
2018-10-11T12:01:36.449Z,22.70
2018-10-11T12:02:36.484Z,22.81
2018-10-11T12:03:36.501Z,22.85
2018-10-11T12:04:36.524Z,22.83
2018-10-11T12:05:36.549Z,22.91
2018-10-11T12:06:36.574Z,22.91
2018-10-11T12:07:36.599Z,22.91
2018-10-11T12:08:36.624Z,22.98
2018-10-11T12:09:36.648Z,22.99
2018-10-11T12:10:36.730Z,23.00
2018-10-11T12:11:36.699Z,22.99
2018-10-11T12:12:36.724Z,23.02
2018-10-11T12:13:36.753Z,23.09
2018-10-11T12:14:36.773Z,23.18
2018-10-11T12:15:36.803Z,23.20
2018-10-11T12:16:36.842Z,23.17
2018-10-11T12:17:36.849Z,23.09
2018-10-11T12:18:36.875Z,23.17
2018-10-11T12:19:36.901Z,23.12
2018-10-11T12:20:36.924Z,23.05
2018-10-11T12:21:36.949Z,23.09
2018-10-11T12:22:36.975Z,23.08
2018-10-11T12:23:37.000Z,23.05
2018-10-11T12:24:37.029Z,23.03
2018-10-11T12:25:37.052Z,23.08
2018-10-11T12:26:37.077Z,23.12
2018-10-11T12:27:37.101Z,23.10
2018-10-11T12:28:37.312Z,23.06
2018-10-11T12:29:37.150Z,23.09
2018-10-11T12:30:37.176Z,23.13
2018-10-11T12:31:37.206Z,23.12
2018-10-11T12:32:37.227Z,23.15
2018-10-11T12:33:37.251Z,23.09
2018-10-11T12:34:37.276Z,23.15
2018-10-11T12:35:37.302Z,23.13
2018-10-11T12:36:37.396Z,23.09
2018-10-11T12:37:37.372Z,23.13
2018-10-11T12:38:37.686Z,23.15
2018-10-11T12:39:37.404Z,23.18
2018-10-11T12:40:37.430Z,23.08
2018-10-11T12:41:37.453Z,23.09
2018-10-11T12:42:37.590Z,23.12
2018-10-11T12:43:37.506Z,23.23
2018-10-11T12:44:37.532Z,23.20
2018-10-11T12:45:38.012Z,23.43
2018-10-11T12:46:39.626Z,23.51
2018-10-11T12:47:37.606Z,23.46
2018-10-11T12:48:37.632Z,23.39
2018-10-11T12:49:41.643Z,23.36
2018-10-11T12:50:37.682Z,23.43
2018-10-11T12:51:37.761Z,23.40
2018-10-11T12:52:37.733Z,23.40